Time;durP1;ratioP1;P1;durP2;ratioP2;P2;SDS_P1;SDS_P2;PMS_P1;PMS_P2;Temp;Humidity;BMP_temperature;BMP_pressure;BME280_temperature;BME280_humidity;BME280_pressure;Samples;Min_cycle;Max_cycle;Signal;HPM_P1;HPM_P2
2022/09/08 00:02:06;;;;;;;5.53;3.53;;;19.80;79.60;;;;;;5028088;28;20091;-66
2022/09/08 00:04:32;;;;;;;5.35;3.67;;;19.80;79.50;;;;;;5021638;28;20025;-66
2022/09/08 00:06:58;;;;;;;6.30;4.47;;;19.70;79.60;;;;;;5029771;28;20025;-66
2022/09/08 00:09:24;;;;;;;5.30;3.70;;;19.70;79.60;;;;;;5028315;28;20036;-66
2022/09/08 00:11:51;;;;;;;7.90;4.00;;;19.70;79.50;;;;;;5028753;28;20018;-66
2022/09/08 00:14:18;;;;;;;7.22;3.47;;;19.70;79.30;;;;;;5027904;28;20029;-66
2022/09/08 00:16:43;;;;;;;6.60;3.72;;;19.70;79.50;;;;;;5027965;28;20038;-66
2022/09/08 00:19:09;;;;;;;7.18;3.90;;;19.60;79.30;;;;;;5025899;28;20079;-67
2022/09/08 00:21:34;;;;;;;7.43;4.03;;;19.60;79.30;;;;;;5031868;28;20096;-66
2022/09/08 00:24:00;;;;;;;7.45;3.95;;;19.60;79.30;;;;;;5032005;28;20099;-66
2022/09/08 00:26:25;;;;;;;6.88;4.15;;;19.60;79.40;;;;;;5019096;28;20507;-67
2022/09/08 00:28:51;;;;;;;6.18;3.53;;;19.50;79.20;;;;;;5017487;28;20046;-66
2022/09/08 00:31:17;;;;;;;7.57;3.75;;;19.50;79.10;;;;;;5030915;28;20036;-66
2022/09/08 00:33:44;;;;;;;8.27;3.90;;;19.50;79.00;;;;;;5029486;28;20065;-66
2022/09/08 00:36:17;;;;;;;5.25;3.67;;;19.50;79.20;;;;;;5012191;28;20061;-66
2022/09/08 00:38:49;;;;;;;5.38;3.75;;;19.50;79.00;;;;;;5030328;28;20075;-67
2022/09/08 00:41:14;;;;;;;4.75;3.25;;;19.40;78.90;;;;;;5029199;28;20041;-67
2022/09/08 00:43:43;;;;;;;6.07;3.33;;;19.50;79.00;;;;;;5024644;28;20440;-67
2022/09/08 00:46:08;;;;;;;6.97;3.38;;;19.40;78.90;;;;;;5026877;28;20419;-67
2022/09/08 00:48:39;;;;;;;6.30;3.28;;;19.40;78.90;;;;;;5028135;28;20038;-67
2022/09/08 00:51:04;;;;;;;7.72;4.00;;;19.40;79.20;;;;;;5028123;28;20550;-67
2022/09/08 00:53:37;;;;;;;6.15;4.13;;;19.40;79.10;;;;;;5022847;28;20385;-68
2022/09/08 00:56:05;;;;;;;9.25;4.35;;;19.30;79.00;;;;;;5034274;28;20069;-67
2022/09/08 00:58:35;;;;;;;7.47;3.63;;;19.30;78.90;;;;;;5029020;28;20056;-67
2022/09/08 01:01:01;;;;;;;6.60;4.00;;;19.30;79.00;;;;;;5030787;28;20025;-67
2022/09/08 01:03:27;;;;;;;10.38;4.20;;;19.30;79.00;;;;;;5030070;28;20022;-67
2022/09/08 01:12:43;;;;;;;4.88;3.53;;;19.30;78.90;;;;;;5013017;28;20053;-67
2022/09/08 01:14:53;;;;;;;5.57;3.65;;;19.20;78.90;;;;;;5030811;28;20029;-67
2022/09/08 01:17:22;;;;;;;7.22;3.83;;;19.20;78.70;;;;;;5029937;28;20095;-67
2022/09/08 01:19:49;;;;;;;6.80;3.65;;;19.10;78.70;;;;;;5030472;28;20033;-67
2022/09/08 01:22:49;;;;;;;6.57;3.83;;;19.10;78.70;;;;;;5004011;28;20038;-66
2022/09/08 01:25:28;;;;;;;6.72;3.40;;;19.10;78.80;;;;;;5026817;28;20026;-67
2022/09/08 01:28:05;;;;;;;8.57;3.63;;;19.10;78.80;;;;;;5023800;28;20033;-67
2022/09/08 01:30:33;;;;;;;8.73;4.25;;;19.10;78.80;;;;;;5012393;28;20034;-67
2022/09/08 01:33:01;;;;;;;8.57;3.97;;;19.00;78.80;;;;;;5029460;28;20480;-67
2022/09/08 01:35:30;;;;;;;6.28;3.10;;;19.00;78.70;;;;;;5027591;28;20497;-67
2022/09/08 01:37:56;;;;;;;7.20;3.55;;;19.00;78.60;;;;;;5034627;28;20049;-67
2022/09/08 01:40:21;;;;;;;6.35;3.53;;;19.00;78.60;;;;;;5032845;28;20032;-67
2022/09/08 01:42:46;;;;;;;5.38;3.38;;;19.00;78.60;;;;;;5034671;28;20532;-67
2022/09/08 01:45:12;;;;;;;5.88;3.20;;;18.90;78.60;;;;;;5030560;28;20053;-67
2022/09/08 01:47:37;;;;;;;5.15;3.53;;;19.00;78.60;;;;;;5030529;28;20033;-67
2022/09/08 01:50:03;;;;;;;3.83;3.10;;;18.90;78.60;;;;;;5031251;28;20053;-67
2022/09/08 01:52:29;;;;;;;6.15;3.30;;;18.90;78.60;;;;;;5028860;28;20471;-67
2022/09/08 01:54:54;;;;;;;6.43;3.45;;;18.90;78.50;;;;;;5029090;28;20033;-67
2022/09/08 01:57:20;;;;;;;8.77;3.13;;;18.90;78.40;;;;;;5033184;28;20029;-67
2022/09/08 01:59:45;;;;;;;7.22;3.10;;;18.80;78.40;;;;;;5033352;28;20029;-67
2022/09/08 02:02:11;;;;;;;5.68;3.55;;;18.90;78.40;;;;;;5033118;28;20037;-67
2022/09/08 02:04:36;;;;;;;5.93;3.65;;;18.90;78.40;;;;;;5033554;28;20026;-67
2022/09/08 02:07:02;;;;;;;5.85;3.60;;;18.90;78.30;;;;;;5034020;28;20025;-66
2022/09/08 02:09:27;;;;;;;5.97;3.40;;;18.80;78.00;;;;;;5035056;28;20385;-66
2022/09/08 02:11:53;;;;;;;7.75;3.72;;;18.80;78.10;;;;;;5034304;28;20030;-65
2022/09/08 02:14:18;;;;;;;7.28;3.70;;;18.80;78.00;;;;;;5015583;28;20394;-66
2022/09/08 02:16:44;;;;;;;4.72;2.92;;;18.70;77.90;;;;;;5031013;28;20507;-66
2022/09/08 02:19:10;;;;;;;5.95;2.83;;;18.70;78.00;;;;;;5033112;28;20061;-66
2022/09/08 02:21:36;;;;;;;4.88;2.70;;;18.70;77.70;;;;;;5032086;28;20136;-66
2022/09/08 02:24:03;;;;;;;5.28;3.20;;;18.70;77.80;;;;;;5034629;28;20041;-67
2022/09/08 02:26:30;;;;;;;6.70;3.17;;;18.60;77.70;;;;;;5032404;28;20026;-66
2022/09/08 02:28:57;;;;;;;6.38;3.65;;;18.60;77.50;;;;;;5033093;28;20080;-66
2022/09/08 02:31:25;;;;;;;7.13;3.15;;;18.60;77.60;;;;;;5032772;28;20036;-66
2022/09/08 02:33:51;;;;;;;7.03;3.60;;;18.60;77.50;;;;;;5031343;28;20468;-66
2022/09/08 02:36:17;;;;;;;7.53;3.08;;;18.60;77.50;;;;;;5014659;28;20033;-66
2022/09/08 02:38:48;;;;;;;6.45;3.20;;;18.60;77.30;;;;;;5033978;28;20032;-66
2022/09/08 02:41:14;;;;;;;6.45;2.90;;;18.50;77.10;;;;;;5032903;28;20048;-66
2022/09/08 02:43:39;;;;;;;6.72;2.90;;;18.50;77.00;;;;;;5031839;28;20022;-66
2022/09/08 02:46:06;;;;;;;5.78;3.13;;;18.50;77.00;;;;;;5031266;28;20031;-65
2022/09/08 02:48:32;;;;;;;6.32;3.40;;;18.40;76.90;;;;;;5009123;28;20147;-66
2022/09/08 02:51:03;;;;;;;6.00;2.80;;;18.40;76.90;;;;;;5028485;28;20185;-66
2022/09/08 02:53:29;;;;;;;5.88;3.17;;;18.40;76.90;;;;;;5031305;28;20511;-66
2022/09/08 02:55:56;;;;;;;6.45;3.00;;;18.40;76.80;;;;;;5031817;28;20434;-66
2022/09/08 02:58:22;;;;;;;7.05;3.40;;;18.40;76.90;;;;;;5033239;28;20506;-66
2022/09/08 03:00:48;;;;;;;8.50;3.20;;;18.40;76.80;;;;;;5033269;28;20037;-67
2022/09/08 03:03:14;;;;;;;5.30;2.88;;;18.30;76.70;;;;;;5031689;28;20550;-66
2022/09/08 03:05:40;;;;;;;6.55;3.33;;;18.30;76.70;;;;;;5026906;28;20026;-66
2022/09/08 03:08:06;;;;;;;11.20;4.30;;;18.30;76.70;;;;;;5031736;28;20088;-66
2022/09/08 03:10:32;;;;;;;5.95;3.17;;;18.30;76.70;;;;;;5032304;28;20025;-66
2022/09/08 03:12:59;;;;;;;7.65;3.75;;;18.30;76.70;;;;;;5039675;28;20037;-66
2022/09/08 03:15:26;;;;;;;7.28;3.05;;;18.20;76.60;;;;;;5030714;28;20071;-66
2022/09/08 03:17:53;;;;;;;7.78;3.30;;;18.20;76.70;;;;;;5028015;28;20033;-67
2022/09/08 03:20:20;;;;;;;6.22;2.83;;;18.20;76.50;;;;;;5030651;28;20116;-67
2022/09/08 03:22:45;;;;;;;6.55;3.13;;;18.20;76.60;;;;;;5020208;28;20048;-67
2022/09/08 03:25:11;;;;;;;6.28;3.22;;;18.10;76.50;;;;;;5038046;28;20029;-67
2022/09/08 03:27:38;;;;;;;6.10;2.90;;;18.10;76.50;;;;;;5034347;28;20040;-67
2022/09/08 03:30:05;;;;;;;6.50;3.08;;;18.10;76.20;;;;;;5028356;28;20049;-67
2022/09/08 03:32:36;;;;;;;8.10;3.58;;;18.10;76.30;;;;;;5025799;28;20115;-67
2022/09/08 03:35:02;;;;;;;6.60;2.92;;;18.00;76.30;;;;;;5028200;28;20052;-67
2022/09/08 03:37:28;;;;;;;5.07;3.17;;;18.00;76.30;;;;;;5027673;28;20465;-67
2022/09/08 03:39:54;;;;;;;5.63;2.92;;;18.00;76.20;;;;;;5018887;28;20061;-67
2022/09/08 03:42:20;;;;;;;6.63;3.13;;;17.90;76.40;;;;;;5029647;28;20072;-67
2022/09/08 03:44:45;;;;;;;7.13;3.58;;;17.90;76.30;;;;;;5022676;28;20053;-67
2022/09/08 03:47:11;;;;;;;6.85;3.50;;;17.90;76.20;;;;;;5027892;28;20032;-67
2022/09/08 03:49:36;;;;;;;12.48;4.00;;;17.90;76.20;;;;;;5031812;28;20018;-67
2022/09/08 03:52:03;;;;;;;5.90;2.95;;;17.90;76.10;;;;;;5031908;28;20084;-68
2022/09/08 03:54:47;;;;;;;6.82;2.90;;;17.80;76.20;;;;;;5032506;28;20105;-67
2022/09/08 03:57:12;;;;;;;5.72;3.30;;;17.90;76.10;;;;;;5029467;28;20033;-67
2022/09/08 03:59:38;;;;;;;10.40;3.70;;;17.80;76.10;;;;;;5031097;28;20034;-68
2022/09/08 04:02:04;;;;;;;5.13;3.28;;;17.80;75.90;;;;;;5032748;28;20035;-67
2022/09/08 04:04:30;;;;;;;5.78;3.00;;;17.80;76.00;;;;;;5032502;28;20119;-67
2022/09/08 04:06:56;;;;;;;4.63;2.70;;;17.80;75.90;;;;;;5031693;28;20505;-68
2022/09/08 04:09:22;;;;;;;7.50;3.72;;;17.80;75.80;;;;;;5027991;28;20034;-67
2022/09/08 04:11:48;;;;;;;5.78;3.20;;;17.80;75.90;;;;;;5020216;28;20358;-67
2022/09/08 04:14:14;;;;;;;5.45;2.95;;;17.80;75.80;;;;;;5014216;28;20416;-68
2022/09/08 04:16:40;;;;;;;4.50;2.65;;;17.80;75.70;;;;;;5030943;28;20091;-67
2022/09/08 04:19:06;;;;;;;6.47;2.92;;;17.80;75.70;;;;;;5032467;28;20136;-68
2022/09/08 04:21:32;;;;;;;6.35;3.75;;;17.70;75.70;;;;;;5030763;28;20069;-68
2022/09/08 04:23:59;;;;;;;8.98;3.50;;;17.70;75.70;;;;;;5032484;28;20413;-68
2022/09/08 04:26:26;;;;;;;7.47;3.08;;;17.60;75.60;;;;;;5031020;28;20030;-68
2022/09/08 04:28:51;;;;;;;4.20;3.05;;;17.60;75.50;;;;;;5022030;28;20048;-68
2022/09/08 04:31:17;;;;;;;5.95;3.22;;;17.60;75.60;;;;;;5030711;28;20025;-68
2022/09/08 04:33:43;;;;;;;5.85;3.22;;;17.60;75.70;;;;;;5012320;28;20026;-67
2022/09/08 04:36:20;;;;;;;6.88;3.28;;;17.60;75.60;;;;;;5019954;28;20090;-68
2022/09/08 04:38:46;;;;;;;6.28;3.30;;;17.50;75.60;;;;;;5016393;28;20041;-68
2022/09/08 04:41:17;;;;;;;5.78;3.38;;;17.50;75.50;;;;;;5024107;28;20183;-68
2022/09/08 04:43:42;;;;;;;5.00;2.70;;;17.50;75.60;;;;;;5029821;28;21353;-67
2022/09/08 04:46:14;;;;;;;7.45;3.25;;;17.50;75.60;;;;;;5029804;28;20037;-68
2022/09/08 04:48:41;;;;;;;5.57;3.17;;;17.50;75.80;;;;;;5019886;28;20370;-67
2022/09/08 04:51:09;;;;;;;8.77;3.00;;;17.50;75.80;;;;;;5014453;28;20384;-67
2022/09/08 04:53:36;;;;;;;4.57;2.75;;;17.50;75.60;;;;;;5029533;28;20056;-68
2022/09/08 04:56:04;;;;;;;4.68;3.03;;;17.50;75.60;;;;;;5031773;28;20400;-67
2022/09/08 04:58:30;;;;;;;5.20;3.08;;;17.50;75.60;;;;;;5027973;28;20029;-67
2022/09/08 05:01:06;;;;;;;7.07;3.72;;;17.50;75.50;;;;;;5027446;28;20111;-68
2022/09/08 05:03:33;;;;;;;7.93;3.97;;;17.50;75.50;;;;;;5030173;28;20029;-68
2022/09/08 05:06:07;;;;;;;6.28;3.33;;;17.50;75.40;;;;;;5031328;28;20029;-68
2022/09/08 05:08:33;;;;;;;7.53;3.47;;;17.60;75.60;;;;;;5029846;28;20022;-67
2022/09/08 05:10:59;;;;;;;9.73;3.97;;;17.60;75.50;;;;;;5011625;28;20056;-68
2022/09/08 05:13:25;;;;;;;5.30;3.30;;;17.50;75.60;;;;;;5030307;28;20025;-68
2022/09/08 05:15:50;;;;;;;6.82;3.58;;;17.60;75.60;;;;;;5030892;28;20025;-68
2022/09/08 05:18:16;;;;;;;5.25;3.42;;;17.60;75.60;;;;;;5030790;28;20025;-67
2022/09/08 05:20:41;;;;;;;5.40;3.42;;;17.60;75.70;;;;;;5031040;28;20384;-68
2022/09/08 05:23:07;;;;;;;7.78;3.60;;;17.60;75.90;;;;;;5029091;28;20037;-68
2022/09/08 05:25:32;;;;;;;5.47;3.50;;;17.60;75.70;;;;;;5021099;28;20032;-68
2022/09/08 05:27:58;;;;;;;5.65;3.50;;;17.60;75.70;;;;;;5012988;28;20036;-68
2022/09/08 05:30:24;;;;;;;6.97;3.80;;;17.60;75.70;;;;;;5029380;28;20025;-67
2022/09/08 05:32:49;;;;;;;6.60;3.08;;;17.70;75.70;;;;;;5010500;28;20044;-67
2022/09/08 05:35:15;;;;;;;5.57;3.58;;;17.70;75.90;;;;;;5011779;28;20068;-66
2022/09/08 05:37:41;;;;;;;6.63;3.25;;;17.70;75.90;;;;;;5019058;28;20029;-67
2022/09/08 05:40:07;;;;;;;10.65;3.78;;;17.70;76.00;;;;;;5028758;28;20365;-66
2022/09/08 05:42:32;;;;;;;10.05;3.53;;;17.80;75.90;;;;;;5030179;28;20057;-67
2022/09/08 05:44:58;;;;;;;6.90;3.45;;;17.80;75.80;;;;;;5030368;28;20066;-66
2022/09/08 05:47:23;;;;;;;9.40;4.57;;;17.80;75.90;;;;;;5029695;28;20496;-66
2022/09/08 05:49:49;;;;;;;7.18;3.60;;;17.80;75.90;;;;;;5030448;28;20037;-66
2022/09/08 05:52:14;;;;;;;5.22;3.38;;;17.80;75.90;;;;;;5031076;28;20053;-66
2022/09/08 05:54:40;;;;;;;8.10;4.75;;;17.90;75.80;;;;;;5010995;28;20026;-66
2022/09/08 05:57:06;;;;;;;7.43;4.13;;;17.90;75.80;;;;;;5027865;28;20029;-67
2022/09/08 05:59:31;;;;;;;9.60;3.95;;;17.90;75.90;;;;;;5031328;28;20373;-66
2022/09/08 06:01:57;;;;;;;8.45;3.60;;;17.90;75.90;;;;;;5028906;28;20037;-66
2022/09/08 06:04:23;;;;;;;6.38;3.90;;;17.90;75.70;;;;;;5030820;28;20026;-66
2022/09/08 06:06:48;;;;;;;6.43;3.53;;;17.90;75.80;;;;;;5029853;28;20105;-66
2022/09/08 06:09:14;;;;;;;9.98;3.97;;;18.00;75.90;;;;;;5029177;28;20571;-66
2022/09/08 06:11:40;;;;;;;10.63;3.97;;;18.00;75.80;;;;;;5029248;28;20432;-66
2022/09/08 06:14:06;;;;;;;7.45;4.20;;;18.00;75.90;;;;;;5030662;28;20029;-67
2022/09/08 06:16:32;;;;;;;6.43;3.25;;;18.00;76.10;;;;;;5030227;28;20544;-66
2022/09/08 06:19:00;;;;;;;8.57;4.20;;;18.10;76.30;;;;;;5031054;28;20044;-65
2022/09/08 06:21:28;;;;;;;8.80;4.18;;;18.10;76.40;;;;;;5015883;28;20131;-68
2022/09/08 06:23:56;;;;;;;6.45;3.47;;;18.10;76.30;;;;;;4999025;28;20026;-70
2022/09/08 06:26:26;;;;;;;9.82;4.45;;;18.20;76.30;;;;;;5029589;28;20036;-68
2022/09/08 06:29:31;;;;;;;9.10;4.05;;;18.20;76.70;;;;;;5020807;28;20048;-65
2022/09/08 06:32:02;;;;;;;6.82;4.43;;;18.20;76.10;;;;;;5028167;28;20028;-65
2022/09/08 06:34:34;;;;;;;6.90;3.60;;;18.20;76.00;;;;;;5016660;28;20045;-64
2022/09/08 06:37:12;;;;;;;5.97;3.78;;;18.20;76.00;;;;;;5019256;28;20175;-66
2022/09/08 06:39:45;;;;;;;7.63;4.07;;;18.20;76.00;;;;;;5020074;28;20488;-67
2022/09/08 06:42:20;;;;;;;9.70;4.07;;;18.20;76.20;;;;;;5017000;28;20069;-66
2022/09/08 06:44:49;;;;;;;9.45;4.03;;;18.20;76.20;;;;;;5018823;28;20033;-67
2022/09/08 06:47:25;;;;;;;9.73;4.18;;;18.20;76.10;;;;;;5023241;28;20139;-66
2022/09/08 06:49:51;;;;;;;7.75;4.20;;;18.20;76.10;;;;;;5020077;28;20034;-67
2022/09/08 06:52:48;;;;;;;6.95;3.92;;;18.30;76.00;;;;;;5022284;28;20057;-67
2022/09/08 06:55:31;;;;;;;9.50;3.90;;;18.30;76.30;;;;;;5021525;28;20119;-66
2022/09/08 06:58:37;;;;;;;7.80;3.72;;;18.30;76.50;;;;;;5029766;28;20030;-66
2022/09/08 07:01:13;;;;;;;9.55;4.70;;;18.30;76.40;;;;;;4938318;29;20399;-66
2022/09/08 07:04:03;;;;;;;6.22;4.00;;;18.30;76.30;;;;;;5010152;28;20397;-67
2022/09/08 07:06:35;;;;;;;7.82;4.45;;;18.30;76.40;;;;;;5021456;28;20026;-66
2022/09/08 07:09:09;;;;;;;6.78;4.20;;;18.40;76.60;;;;;;4997559;28;20390;-66
2022/09/08 07:12:07;;;;;;;6.85;4.13;;;18.40;76.90;;;;;;5026235;28;20057;-66
2022/09/08 07:14:33;;;;;;;9.40;4.32;;;18.50;77.00;;;;;;5020106;28;20120;-66
2022/09/08 07:17:25;;;;;;;10.32;4.43;;;18.50;76.70;;;;;;5024912;28;20022;-66
2022/09/08 07:19:53;;;;;;;10.02;4.65;;;18.50;76.80;;;;;;5019674;28;20380;-66
2022/09/08 07:22:42;;;;;;;11.57;5.28;;;18.50;76.90;;;;;;5026727;28;20029;-66
2022/09/08 07:25:19;;;;;;;8.30;4.43;;;18.60;76.90;;;;;;5021597;28;20524;-66
2022/09/08 07:27:48;;;;;;;7.68;3.60;;;18.60;76.50;;;;;;5031187;28;20025;-66
2022/09/08 07:30:18;;;;;;;7.75;4.32;;;18.60;76.60;;;;;;5023981;28;20048;-67
2022/09/08 07:32:48;;;;;;;8.45;4.75;;;18.60;76.70;;;;;;5027895;28;20033;-67
2022/09/08 07:35:41;;;;;;;7.15;4.30;;;18.60;76.80;;;;;;5016795;28;20384;-67
2022/09/08 07:38:46;;;;;;;5.75;3.70;;;18.70;77.20;;;;;;5029663;28;20036;-67
2022/09/08 07:41:31;;;;;;;6.97;3.78;;;18.70;77.50;;;;;;5015391;28;20442;-67
2022/09/08 07:43:59;;;;;;;7.50;4.43;;;18.80;77.50;;;;;;5028366;28;20405;-66
2022/09/08 07:47:03;;;;;;;7.90;4.93;;;18.90;77.50;;;;;;4997864;28;20508;-67
2022/09/08 07:49:47;;;;;;;8.05;4.70;;;18.90;78.20;;;;;;5028980;28;20080;-67
2022/09/08 07:52:41;;;;;;;7.10;3.92;;;19.00;77.60;;;;;;5021376;28;20374;-66
2022/09/08 07:55:34;;;;;;;12.57;4.50;;;19.10;77.80;;;;;;5015819;28;20034;-67
2022/09/08 07:58:18;;;;;;;8.02;4.75;;;19.20;77.70;;;;;;5009453;28;20461;-67
2022/09/08 08:01:24;;;;;;;9.95;5.07;;;19.30;77.40;;;;;;5019167;28;20095;-67
2022/09/08 08:03:58;;;;;;;10.07;4.65;;;19.30;77.40;;;;;;5019760;28;20513;-67
2022/09/08 08:06:34;;;;;;;8.45;4.68;;;19.40;77.30;;;;;;5023048;28;20033;-67
2022/09/08 08:09:22;;;;;;;10.57;5.53;;;19.40;76.80;;;;;;5017522;28;20521;-66
2022/09/08 08:12:12;;;;;;;7.57;4.25;;;19.50;76.60;;;;;;5026728;28;20030;-67
2022/09/08 08:14:59;;;;;;;8.55;4.80;;;19.50;76.60;;;;;;5029340;28;20029;-67
2022/09/08 08:17:59;;;;;;;9.43;4.97;;;19.50;76.30;;;;;;5028345;28;20495;-67
2022/09/08 08:20:36;;;;;;;6.22;4.00;;;19.40;76.50;;;;;;5024337;28;20052;-67
2022/09/08 08:23:39;;;;;;;6.53;4.20;;;19.50;76.90;;;;;;5027331;28;20117;-67
2022/09/08 08:26:26;;;;;;;7.22;4.22;;;19.40;76.90;;;;;;5021188;28;20041;-67
2022/09/08 08:29:15;;;;;;;8.90;4.70;;;19.50;77.10;;;;;;5020560;28;20061;-66
2022/09/08 08:31:48;;;;;;;13.35;5.07;;;19.50;77.30;;;;;;5002830;28;20037;-66
2022/09/08 08:34:29;;;;;;;7.47;5.13;;;19.40;77.30;;;;;;5031172;28;20362;-67
2022/09/08 08:37:01;;;;;;;10.18;5.10;;;19.30;77.20;;;;;;5018716;28;20117;-67
2022/09/08 08:39:28;;;;;;;8.18;4.70;;;19.30;77.50;;;;;;5015832;28;20384;-66
2022/09/08 08:42:15;;;;;;;8.77;4.45;;;19.30;77.60;;;;;;5028130;28;20112;-66
2022/09/08 08:44:51;;;;;;;8.43;5.22;;;19.30;77.80;;;;;;5029170;28;20108;-66
2022/09/08 08:47:20;;;;;;;11.20;4.40;;;19.20;79.00;;;;;;5021618;28;20095;-66
2022/09/08 08:50:17;;;;;;;7.20;4.35;;;19.20;80.20;;;;;;5028709;28;20057;-66
2022/09/08 08:52:45;;;;;;;8.70;4.93;;;19.20;81.20;;;;;;5024398;28;20036;-66
2022/09/08 08:55:25;;;;;;;15.30;5.78;;;19.10;81.50;;;;;;5029895;28;20068;-66
2022/09/08 08:58:29;;;;;;;8.23;5.07;;;19.10;82.40;;;;;;5021522;28;20032;-66
2022/09/08 09:00:59;;;;;;;15.68;5.90;;;19.10;82.40;;;;;;5019446;28;20036;-65
2022/09/08 09:03:27;;;;;;;8.27;4.90;;;19.10;83.60;;;;;;5031006;28;20112;-65
2022/09/08 09:06:20;;;;;;;8.65;5.63;;;19.10;84.00;;;;;;5030760;28;20025;-66
2022/09/08 09:09:10;;;;;;;6.53;4.68;;;19.10;84.30;;;;;;5018976;28;20073;-66
2022/09/08 09:12:09;;;;;;;12.30;5.72;;;19.20;84.30;;;;;;5014834;28;20037;-66
2022/09/08 09:15:02;;;;;;;7.82;5.30;;;19.20;84.60;;;;;;5027454;28;20037;-66
2022/09/08 09:17:58;;;;;;;8.75;5.22;;;19.30;85.50;;;;;;5030586;28;20090;-65
2022/09/08 09:20:45;;;;;;;10.60;5.53;;;19.40;85.10;;;;;;5024961;28;20026;-65
2022/09/08 09:23:45;;;;;;;9.13;5.60;;;19.40;85.30;;;;;;5012893;28;20381;-65
2022/09/08 09:26:19;;;;;;;14.48;5.78;;;19.50;85.60;;;;;;5030803;28;20033;-66
2022/09/08 09:28:54;;;;;;;9.05;6.00;;;19.60;85.90;;;;;;5030794;28;20508;-65
2022/09/08 09:31:45;;;;;;;9.25;5.50;;;19.70;85.70;;;;;;5024958;28;20091;-66
2022/09/08 09:34:20;;;;;;;8.57;5.20;;;19.70;85.90;;;;;;5011915;28;20508;-65
2022/09/08 09:37:19;;;;;;;9.60;5.82;;;19.80;85.90;;;;;;5026162;28;20040;-66
2022/09/08 09:40:03;;;;;;;12.60;6.20;;;19.90;85.80;;;;;;5013730;28;20485;-66
2022/09/08 09:42:45;;;;;;;10.32;6.13;;;19.90;86.10;;;;;;5029573;28;20045;-66
2022/09/08 09:45:53;;;;;;;9.23;6.13;;;19.90;86.40;;;;;;5024749;28;20113;-66
2022/09/08 09:48:57;;;;;;;9.95;6.10;;;19.90;86.60;;;;;;5024014;28;20037;-67
2022/09/08 09:51:34;;;;;;;9.23;5.97;;;20.00;86.80;;;;;;5028853;28;20370;-67
2022/09/08 09:54:22;;;;;;;10.07;6.15;;;20.00;86.80;;;;;;5027916;28;20032;-66
2022/09/08 09:57:19;;;;;;;10.20;6.72;;;20.00;87.10;;;;;;4993405;28;20500;-67
2022/09/08 10:00:17;;;;;;;12.40;6.70;;;20.00;86.70;;;;;;5029270;28;20048;-66
2022/09/08 10:02:53;;;;;;;9.52;5.70;;;20.10;86.40;;;;;;5014309;28;20088;-67
2022/09/08 10:05:24;;;;;;;9.95;6.28;;;20.10;86.20;;;;;;5016785;28;20029;-67
2022/09/08 10:08:08;;;;;;;10.00;5.35;;;20.10;86.80;;;;;;5029350;28;20037;-67
2022/09/08 10:11:05;;;;;;;7.85;5.50;;;20.10;86.80;;;;;;5015618;28;20136;-59
2022/09/08 10:13:57;;;;;;;9.88;6.35;;;20.00;86.60;;;;;;5034013;28;20076;-67
2022/09/08 10:16:41;;;;;;;7.88;5.25;;;20.10;87.10;;;;;;5002152;28;20037;-66
2022/09/08 10:19:31;;;;;;;12.30;6.00;;;20.10;87.30;;;;;;5032881;28;20098;-66
2022/09/08 10:22:30;;;;;;;8.85;6.15;;;20.10;87.50;;;;;;5028207;28;20033;-66
2022/09/08 10:25:23;;;;;;;8.40;5.72;;;20.10;87.60;;;;;;5033763;28;20037;-67
2022/09/08 10:28:03;;;;;;;11.10;6.38;;;20.10;87.80;;;;;;5033136;28;20033;-67
2022/09/08 10:31:02;;;;;;;9.75;5.97;;;20.10;88.20;;;;;;5033784;28;20048;-67
2022/09/08 10:33:52;;;;;;;13.27;6.78;;;20.00;88.30;;;;;;5030097;28;20086;-67
2022/09/08 10:36:32;;;;;;;11.73;5.88;;;20.00;88.60;;;;;;5033174;28;20029;-67
2022/09/08 10:39:18;;;;;;;10.60;6.60;;;20.00;89.30;;;;;;5023534;28;20033;-66
2022/09/08 10:42:03;;;;;;;11.27;6.43;;;20.00;90.00;;;;;;5030633;28;20124;-66
2022/09/08 10:45:06;;;;;;;10.98;6.32;;;19.90;90.10;;;;;;5033383;28;20075;-66
2022/09/08 10:47:52;;;;;;;10.00;7.00;;;19.90;90.20;;;;;;5027733;28;20030;-66
2022/09/08 10:50:23;;;;;;;11.60;6.85;;;19.90;90.80;;;;;;5029881;28;20120;-66
2022/09/08 10:53:28;;;;;;;10.20;6.45;;;19.80;91.10;;;;;;5014214;28;20480;-66
2022/09/08 10:56:13;;;;;;;11.95;7.35;;;19.80;91.20;;;;;;5034532;28;20033;-66
2022/09/08 10:58:57;;;;;;;13.05;8.18;;;19.70;91.70;;;;;;5031380;28;20026;-65
2022/09/08 11:01:46;;;;;;;13.50;7.53;;;19.70;91.80;;;;;;5030142;28;20084;-66
2022/09/08 11:04:51;;;;;;;12.40;8.20;;;19.70;92.10;;;;;;4994834;28;20120;-66
2022/09/08 11:07:37;;;;;;;10.82;7.50;;;19.70;92.50;;;;;;5010592;28;20124;-66
2022/09/08 11:10:27;;;;;;;11.25;7.57;;;19.60;92.60;;;;;;5031420;28;20083;-66
2022/09/08 11:13:12;;;;;;;12.48;7.82;;;19.60;93.10;;;;;;5029827;28;20032;-66
2022/09/08 11:15:52;;;;;;;;;;;19.60;93.40;;;;;;5035149;28;20140;-65
2022/09/08 11:18:34;;;;;;;11.50;6.78;;;19.60;92.60;;;;;;5029000;28;19909;-66
2022/09/08 11:21:28;;;;;;;11.48;8.40;;;19.60;93.40;;;;;;5018236;28;20038;-66
2022/09/08 11:24:18;;;;;;;11.97;8.03;;;19.60;93.70;;;;;;5020623;28;20095;-66
2022/09/08 11:27:06;;;;;;;12.48;7.28;;;19.60;93.80;;;;;;5033012;28;20368;-66
2022/09/08 11:29:36;;;;;;;12.25;8.30;;;19.60;94.00;;;;;;5038415;28;20057;-66
2022/09/08 11:32:25;;;;;;;11.95;8.15;;;19.60;94.30;;;;;;5045294;28;20026;-66
2022/09/08 11:35:12;;;;;;;12.52;8.55;;;19.60;94.10;;;;;;5047426;28;20017;-66
2022/09/08 11:38:14;;;;;;;12.15;8.27;;;19.50;94.20;;;;;;5044313;28;20041;-66
2022/09/08 11:41:19;;;;;;;13.52;8.85;;;19.50;94.30;;;;;;5030748;28;20025;-66
2022/09/08 11:44:33;;;;;;;10.65;7.90;;;19.50;94.50;;;;;;5044690;28;19939;-66
2022/09/08 11:47:19;;;;;;;13.45;9.35;;;19.40;94.80;;;;;;5035151;28;20053;-66
2022/09/08 11:50:20;;;;;;;13.43;9.68;;;19.40;94.90;;;;;;5035115;28;20120;-66
2022/09/08 11:53:14;;;;;;;15.68;10.15;;;19.30;94.90;;;;;;5025147;28;20092;-66
2022/09/08 11:55:46;;;;;;;14.75;10.32;;;19.20;95.30;;;;;;5016806;28;20080;-66
2022/09/08 11:58:41;;;;;;;17.52;9.65;;;19.10;95.50;;;;;;5035235;28;20036;-66
2022/09/08 12:01:31;;;;;;;12.25;9.25;;;19.10;95.90;;;;;;5046851;28;20121;-65
2022/09/08 12:04:28;;;;;;;11.43;9.10;;;19.10;96.10;;;;;;5042873;28;20029;-66
2022/09/08 12:07:18;;;;;;;13.38;9.60;;;19.00;96.40;;;;;;5022787;28;20372;-66
2022/09/08 12:10:22;;;;;;;17.15;10.88;;;18.90;96.60;;;;;;5032497;28;20029;-67
2022/09/08 12:12:59;;;;;;;12.25;10.05;;;19.00;96.80;;;;;;5024111;28;20555;-66
2022/09/08 12:15:41;;;;;;;13.90;9.57;;;19.00;97.10;;;;;;5032756;28;20036;-66
2022/09/08 12:18:21;;;;;;;14.90;9.15;;;19.00;97.20;;;;;;5031428;28;20125;-67
2022/09/08 12:21:11;;;;;;;11.35;8.93;;;19.00;97.30;;;;;;5031706;28;20043;-67
2022/09/08 12:24:11;;;;;;;11.02;8.45;;;19.00;97.30;;;;;;5032054;28;20033;-66
2022/09/08 12:26:52;;;;;;;10.88;8.60;;;19.00;97.50;;;;;;5028834;28;20108;-66
2022/09/08 12:29:36;;;;;;;14.63;9.35;;;19.10;97.90;;;;;;5031404;28;20042;-67
2022/09/08 12:32:29;;;;;;;14.98;9.10;;;19.20;98.10;;;;;;5031605;28;20116;-67
2022/09/08 12:35:04;;;;;;;14.43;9.82;;;19.20;98.10;;;;;;5032664;28;20118;-67
2022/09/08 12:37:38;;;;;;;14.80;8.95;;;19.30;98.30;;;;;;5032390;28;20021;-67
2022/09/08 12:40:14;;;;;;;13.70;8.68;;;19.50;98.50;;;;;;5030460;28;20034;-67
2022/09/08 12:43:01;;;;;;;10.68;8.48;;;19.50;98.40;;;;;;5030937;28;20448;-66
2022/09/08 12:46:09;;;;;;;15.25;9.88;;;19.50;98.00;;;;;;5031284;28;20021;-67
2022/09/08 12:48:52;;;;;;;15.98;9.60;;;19.60;97.90;;;;;;5030959;28;20456;-65
2022/09/08 12:51:38;;;;;;;11.82;8.45;;;19.60;98.00;;;;;;5031324;28;20084;-67
2022/09/08 12:54:41;;;;;;;14.98;9.02;;;19.60;97.80;;;;;;5032036;28;20391;-67
2022/09/08 12:57:42;;;;;;;11.88;8.52;;;19.70;97.90;;;;;;5030328;28;20048;-67
2022/09/08 13:00:11;;;;;;;16.17;10.07;;;19.70;98.00;;;;;;5032123;28;20419;-66
2022/09/08 13:03:11;;;;;;;15.77;9.40;;;19.80;98.20;;;;;;5031645;28;20037;-66
2022/09/08 13:06:14;;;;;;;11.27;8.70;;;19.90;98.40;;;;;;5022437;28;20420;-66
2022/09/08 13:08:56;;;;;;;11.52;8.75;;;19.90;98.50;;;;;;5021869;28;20026;-68
2022/09/08 13:11:49;;;;;;;9.93;8.60;;;20.00;98.60;;;;;;5017214;28;20420;-68
2022/09/08 13:14:34;;;;;;;11.27;8.32;;;20.10;98.50;;;;;;5031495;28;20091;-68
2022/09/08 13:17:13;;;;;;;12.55;10.18;;;20.10;98.60;;;;;;5026564;28;20365;-68
2022/09/08 13:19:51;;;;;;;15.65;10.23;;;20.20;98.90;;;;;;5025548;28;20108;-66
2022/09/08 13:22:26;;;;;;;10.68;8.82;;;20.30;99.10;;;;;;5031728;28;20472;-68
2022/09/08 13:25:12;;;;;;;12.50;9.25;;;20.40;99.10;;;;;;5027686;28;20045;-67
2022/09/08 13:28:20;;;;;;;12.93;9.88;;;20.50;99.00;;;;;;5028501;28;20447;-70
2022/09/08 13:31:09;;;;;;;14.18;9.73;;;20.60;99.00;;;;;;5029863;28;20072;-66
2022/09/08 13:33:49;;;;;;;15.20;9.85;;;20.60;99.00;;;;;;5034869;28;20457;-68
2022/09/08 13:36:21;;;;;;;12.07;9.38;;;20.70;99.00;;;;;;5030903;28;20404;-69
2022/09/08 13:38:50;;;;;;;11.40;9.07;;;20.70;98.90;;;;;;5026484;28;20500;-68